Meteo Giornale » Osservazioni meteo Stati Uniti (USA) » Broken Bow
ore: 13:53 - Osservazioni Meteo Broken Bow
Lat. 41° 26' N Lon. 99° 39' W Alt. 776 metri s.l.m.
28 °C
Sereno
Temp. 24 Ore
16 °C
32 °C
Nord
0 Km/h
Dew point 19 °C
Umidità 58 %
Visibilità 10 Km
Il sole sorge alle ore 07:04
Il sole tramonta alle ore 20:13
| Data e Ora | Cielo e Fenomeni | T °C | DP °C | Um. % | Pres. hPa | Vis. km | Vento km/h | |
|---|---|---|---|---|---|---|---|---|
| Oggi h: 13:53 | Sereno | 28 | 19 | 58 | 1016 | 10 | N 0 | |
| Oggi h: 12:53 | Sereno | 27 | 18 | 57 | 1016 | 10 | N 5.5 | |
| Oggi h: 11:53 | Sereno | 26 | 18 | 61 | 1016 | 10 | N 0 | |
| Oggi h: 10:53 | Sereno | 23 | 17 | 68 | 1016 | 10 | N/NO 7.4 | |
| Oggi h: 09:53 | Sereno | 21 | 14 | 64 | 1017 | 10 | N/NO 7.4 | |
| Oggi h: 08:53 | Sereno | 20 | 14 | 68 | 1016 | 10 | N 5.5 | |
| Oggi h: 07:53 | Sereno | 16 | 14 | 87 | 1017 | 10 | N 5.5 | |
| Oggi h: 06:53 | Molto Nuvoloso | 16 | 14 | 87 | 1016 | 10 | N 0 | |
| Oggi h: 05:53 | Poco Nuvoloso | 17 | 14 | 82 | 1015 | 10 | N 0 | |
| Oggi h: 04:53 | Molto Nuvoloso | 17 | 14 | 82 | 1014 | 10 | N 0 | |
| Oggi h: 03:53 | Sereno | 18 | 14 | 77 | 1014 | 10 | NO 13 | |
| Oggi h: 02:53 | Sereno | 21 | 13 | 60 | 1013 | 10 | NO 16.7 | |
| Oggi h: 01:53 | Sereno | 23 | 14 | 56 | 1012 | 10 | O/NO 14.8 | |
| Oggi h: 00:53 | Sereno | 23 | 18 | 73 | 1012 | 10 | O 13 | |
| Ieri h: 23:53 | Sereno | 21 | 19 | 88 | 1011 | 10 | N 0 | |
| Ieri h: 22:53 | Sereno | 20 | 19 | 93 | 1012 | 10 | N 5.5 | |
| Ieri h: 21:53 | Sereno | 21 | 20 | 94 | 1012 | 10 | N 0 | |
| Ieri h: 20:53 | Sereno | 23 | 22 | 94 | 1011 | 10 | N 0 | |
| Ieri h: 19:53 | Sereno | 25 | 22 | 83 | 1011 | 10 | E 7.4 | |
| Ieri h: 18:53 | Sereno | 27 | 21 | 69 | 1011 | 10 | N 0 | |
| Ieri h: 17:53 | Sereno | 29 | 20 | 58 | 1011 | 10 | S/SO 7.4 | |
| Ieri h: 16:53 | Sereno | 32 | 18 | 43 | 1010 | 10 | O/SO 7.4 | |
| Ieri h: 15:53 | Sereno | 31 | 18 | 45 | 1010 | 10 | O 7.4 | |
| Ieri h: 14:53 | Sereno | 30 | 17 | 45 | 1011 | 10 | N 0 | |



